Time;durP1;ratioP1;P1;durP2;ratioP2;P2;SDS_P1;SDS_P2;PMS_P1;PMS_P2;Temp;Humidity;BMP_temperature;BMP_pressure;BME280_temperature;BME280_humidity;BME280_pressure;Samples;Min_cycle;Max_cycle;Signal;HPM_P1;HPM_P2
2021/10/31 00:01:34;;;;;;;13.40;9.40;;;;;;;8.69;62.32;98959.75;112429;1193;60943;-80
2021/10/31 00:04:01;;;;;;;17.10;12.50;;;;;;;8.67;62.49;98959.85;112570;1193;67042;-82
2021/10/31 00:06:28;;;;;;;41.90;26.30;;;;;;;8.70;62.63;98960.77;112546;1193;60950;-79
2021/10/31 00:08:54;;;;;;;40.00;24.10;;;;;;;8.73;62.60;98963.04;112487;1193;62735;-78
2021/10/31 00:11:21;;;;;;;43.80;25.60;;;;;;;8.72;62.55;98965.41;112584;1192;61026;-78
2021/10/31 00:13:47;;;;;;;19.70;13.40;;;;;;;8.71;62.62;98965.45;112379;1192;60981;-78
2021/10/31 00:16:14;;;;;;;21.70;15.00;;;;;;;8.68;62.49;98963.87;112541;1192;60950;-77
2021/10/31 00:18:41;;;;;;;29.30;18.90;;;;;;;8.63;62.46;98963.11;112514;1192;60982;-77
2021/10/31 00:21:08;;;;;;;30.70;18.80;;;;;;;8.57;62.54;98957.98;112485;1193;63126;-77
2021/10/31 00:23:35;;;;;;;31.20;19.30;;;;;;;8.48;62.68;98955.52;112521;1192;61026;-77
2021/10/31 00:26:02;;;;;;;33.30;19.60;;;;;;;8.37;62.76;98953.82;112552;1192;61036;-77
2021/10/31 00:28:28;;;;;;;20.20;14.50;;;;;;;8.26;62.89;98956.41;112510;1193;66286;-77
2021/10/31 00:30:55;;;;;;;21.90;15.40;;;;;;;8.18;63.09;98955.80;112424;1192;60933;-77
2021/10/31 00:33:21;;;;;;;16.70;13.40;;;;;;;8.12;63.20;98956.35;112500;1192;60982;-77
2021/10/31 00:35:48;;;;;;;37.40;23.50;;;;;;;8.06;63.39;98959.70;112500;1192;61093;-77
2021/10/31 00:38:15;;;;;;;37.70;23.60;;;;;;;7.95;63.76;98967.54;112530;1192;61042;-77
2021/10/31 00:40:43;;;;;;;36.60;24.50;;;;;;;7.84;64.24;98972.59;112451;1193;66958;-77
2021/10/31 00:43:10;;;;;;;30.80;21.60;;;;;;;7.77;64.47;98973.34;112523;1192;61542;-77
2021/10/31 00:45:37;;;;;;;32.70;21.70;;;;;;;7.78;64.64;98971.52;112472;1193;64006;-77
2021/10/31 00:48:04;;;;;;;50.90;32.90;;;;;;;7.84;64.82;98977.34;112493;1183;61093;-77
2021/10/31 00:50:30;;;;;;;37.70;27.00;;;;;;;7.86;64.83;98981.66;112491;1192;61126;-79
2021/10/31 00:52:58;;;;;;;49.10;32.70;;;;;;;7.84;64.74;98983.39;112551;1192;64955;-77
2021/10/31 00:55:24;;;;;;;50.40;35.40;;;;;;;7.79;64.82;98987.73;112497;1193;61017;-79
2021/10/31 00:57:51;;;;;;;48.70;35.10;;;;;;;7.70;64.84;98984.31;112532;1192;61026;-78
2021/10/31 01:00:18;;;;;;;27.30;19.80;;;;;;;7.63;64.96;98983.81;112548;1192;61017;-78
2021/10/31 01:02:45;;;;;;;39.10;26.90;;;;;;;7.53;65.24;98978.55;112476;1192;60959;-77
2021/10/31 01:05:16;;;;;;;29.90;22.30;;;;;;;7.43;65.46;98982.60;112529;1192;65683;-77
2021/10/31 01:08:10;;;;;;;39.70;27.70;;;;;;;7.34;65.76;98985.23;112535;1193;60973;-77
2021/10/31 01:11:02;;;;;;;30.20;22.20;;;;;;;7.23;65.93;98987.58;112482;1193;62342;-79
2021/10/31 01:13:49;;;;;;;29.80;21.50;;;;;;;7.13;66.10;98986.55;112529;1192;61006;-79
2021/10/31 01:16:57;;;;;;;29.60;21.30;;;;;;;7.03;66.30;98983.70;112479;1193;60943;-78
2021/10/31 01:19:48;;;;;;;23.70;18.20;;;;;;;6.92;66.57;98984.10;112028;1187;65863;-77
2021/10/31 01:22:42;;;;;;;30.70;22.50;;;;;;;6.78;66.94;98976.56;112498;1192;60943;-80
2021/10/31 01:25:23;;;;;;;26.80;19.80;;;;;;;6.65;67.40;98975.12;112520;1192;62356;-78
2021/10/31 01:28:28;;;;;;;28.50;21.40;;;;;;;6.54;67.60;98978.45;112473;1192;60988;-76
2021/10/31 01:31:14;;;;;;;32.90;22.60;;;;;;;6.41;68.07;98982.64;112586;1193;61011;-77
2021/10/31 01:34:00;;;;;;;35.20;26.30;;;;;;;6.29;68.68;98983.06;112506;1193;65953;-78
2021/10/31 01:36:57;;;;;;;35.60;24.40;;;;;;;6.24;69.08;98982.64;112518;1193;61046;-78
2021/10/31 01:39:49;;;;;;;35.80;24.10;;;;;;;6.19;69.76;98988.53;112521;1192;64700;-77
2021/10/31 01:42:33;;;;;;;34.30;24.60;;;;;;;6.14;69.94;98994.23;112552;1193;60959;-80
2021/10/31 01:45:24;;;;;;;31.80;23.40;;;;;;;6.10;69.80;98990.36;112544;1192;61071;-78
2021/10/31 01:48:33;;;;;;;33.40;25.20;;;;;;;6.06;70.02;98986.84;112412;1193;64351;-79
2021/10/31 01:51:06;;;;;;;36.80;26.00;;;;;;;5.97;70.31;98995.40;112402;1193;61017;-79
2021/10/31 01:53:37;;;;;;;32.80;24.30;;;;;;;5.86;70.78;98999.42;112588;1193;64307;-77
2021/10/31 01:56:17;;;;;;;35.10;25.60;;;;;;;5.83;70.92;98999.59;112534;1193;61037;-78
2021/10/31 01:58:50;;;;;;;40.80;26.10;;;;;;;5.77;71.16;98997.36;112557;1191;61027;-78
2021/10/31 02:01:19;;;;;;;36.60;27.20;;;;;;;5.71;71.22;98996.59;112510;1192;66041;-77
2021/10/31 02:03:48;;;;;;;32.30;24.60;;;;;;;5.65;71.36;98999.55;112574;1192;61043;-78
2021/10/31 02:06:17;;;;;;;33.30;23.70;;;;;;;5.57;71.54;99001.83;112517;1193;62811;-78
2021/10/31 02:08:46;;;;;;;32.80;23.40;;;;;;;5.49;71.75;98997.77;112502;1192;60985;-77
2021/10/31 02:11:16;;;;;;;37.20;24.60;;;;;;;5.42;71.87;98998.45;112401;1192;61017;-77
2021/10/31 02:13:46;;;;;;;34.50;22.70;;;;;;;5.34;72.02;98997.45;112497;1192;64820;-77
2021/10/31 02:16:16;;;;;;;31.90;22.70;;;;;;;5.25;72.30;98998.91;112576;1192;60981;-78
2021/10/31 02:18:46;;;;;;;35.20;25.00;;;;;;;5.16;72.61;99003.71;112471;1193;65339;-78
2021/10/31 02:21:19;;;;;;;37.20;25.80;;;;;;;5.10;72.97;99004.00;112529;1192;61093;-79
2021/10/31 02:23:46;;;;;;;35.60;24.50;;;;;;;5.06;73.12;99001.33;112541;1191;61062;-78
2021/10/31 02:26:14;;;;;;;35.80;27.30;;;;;;;5.01;73.19;98998.36;112422;1193;65695;-81
2021/10/31 02:28:53;;;;;;;38.10;26.70;;;;;;;4.99;73.43;98994.62;112493;1192;61059;-80
2021/10/31 02:31:20;;;;;;;34.70;24.70;;;;;;;4.95;73.58;98994.77;112536;1193;64064;-79
2021/10/31 02:33:47;;;;;;;31.50;23.60;;;;;;;4.89;73.64;98993.10;112536;1177;61059;-79
2021/10/31 02:36:14;;;;;;;34.90;25.80;;;;;;;4.82;73.79;98993.38;112490;1192;61061;-78
2021/10/31 02:38:41;;;;;;;35.40;26.00;;;;;;;4.77;74.02;99001.38;112221;1193;66654;-78
2021/10/31 02:41:09;;;;;;;37.90;26.30;;;;;;;4.71;74.26;99008.47;112511;1192;61010;-79
2021/10/31 02:43:36;;;;;;;37.80;26.90;;;;;;;4.67;74.29;99010.08;112552;1192;64472;-79
2021/10/31 02:46:03;;;;;;;41.20;30.50;;;;;;;4.64;74.54;99013.20;112600;1192;61150;-79
2021/10/31 02:48:31;;;;;;;54.90;41.20;;;;;;;4.64;74.93;99017.08;112539;1193;61465;-78
2021/10/31 02:51:07;;;;;;;47.60;33.70;;;;;;;4.65;75.13;99015.09;112571;1193;66931;-78
2021/10/31 02:53:41;;;;;;;43.50;29.20;;;;;;;4.62;75.27;99014.84;112558;1193;60976;-78
2021/10/31 02:56:28;;;;;;;36.80;27.80;;;;;;;4.54;75.42;99014.83;112586;1192;63614;-78
2021/10/31 02:59:00;;;;;;;36.50;28.20;;;;;;;4.47;75.62;99017.25;112525;1193;61042;-78
2021/10/31 03:01:29;;;;;;;35.10;26.80;;;;;;;4.43;75.71;99016.36;112505;1192;60913;-78
2021/10/31 03:03:57;;;;;;;39.60;29.50;;;;;;;4.42;75.88;99015.70;112488;1193;65670;-78
2021/10/31 03:06:25;;;;;;;40.20;29.60;;;;;;;4.42;76.04;99016.75;112471;1193;61015;-77
2021/10/31 03:08:51;;;;;;;38.30;28.40;;;;;;;4.39;76.02;99018.27;112495;1192;64027;-78
2021/10/31 03:11:19;;;;;;;34.30;26.90;;;;;;;4.34;76.30;99022.20;112459;1192;61001;-78
2021/10/31 03:13:46;;;;;;;44.80;33.40;;;;;;;4.28;76.45;99028.76;112568;1192;61052;-78
2021/10/31 03:16:13;;;;;;;40.20;29.70;;;;;;;4.26;76.68;99026.91;112404;1193;66010;-76
2021/10/31 03:18:40;;;;;;;38.00;27.90;;;;;;;4.25;76.68;99029.40;112551;1192;60998;-78
2021/10/31 03:21:07;;;;;;;42.30;29.60;;;;;;;4.20;76.60;99031.21;112505;1192;63610;-77
2021/10/31 03:23:33;;;;;;;39.70;30.50;;;;;;;4.11;76.77;99025.94;112511;1184;61112;-77
2021/10/31 03:26:00;;;;;;;42.70;32.00;;;;;;;4.05;77.11;99031.45;112376;1177;61087;-77
2021/10/31 03:28:26;;;;;;;46.20;36.40;;;;;;;3.97;77.95;99028.95;112365;1192;66013;-77
2021/10/31 03:30:53;;;;;;;49.00;40.60;;;;;;;3.92;78.47;99031.06;112371;1192;61064;-77
2021/10/31 03:33:20;;;;;;;53.70;42.30;;;;;;;3.90;78.43;99030.98;112467;1192;61035;-77
2021/10/31 03:35:46;;;;;;;52.40;40.40;;;;;;;3.89;78.41;99034.35;112513;1192;61962;-77
2021/10/31 03:38:13;;;;;;;45.70;38.00;;;;;;;3.89;78.49;99034.73;112474;1192;61183;-80
2021/10/31 03:40:39;;;;;;;46.60;36.30;;;;;;;3.84;78.41;99031.75;112549;1191;60991;-78
2021/10/31 03:43:06;;;;;;;47.50;36.60;;;;;;;3.80;78.41;99030.50;112573;1193;60953;-77
2021/10/31 03:45:32;;;;;;;49.00;38.80;;;;;;;3.76;78.62;99036.96;112544;1193;64012;-77
2021/10/31 03:48:00;;;;;;;51.70;41.00;;;;;;;3.71;79.05;99038.05;112494;1192;61062;-78
2021/10/31 03:50:27;;;;;;;56.90;43.80;;;;;;;3.68;79.18;99029.17;112500;1192;61061;-77
2021/10/31 03:52:55;;;;;;;55.50;42.40;;;;;;;3.68;79.46;99027.07;112345;1192;61065;-78
2021/10/31 03:55:21;;;;;;;52.40;41.60;;;;;;;3.68;79.51;99026.02;112491;1193;61059;-77
2021/10/31 03:57:48;;;;;;;51.30;40.50;;;;;;;3.67;79.53;99030.79;112458;1193;62664;-76
2021/10/31 04:00:15;;;;;;;64.20;48.10;;;;;;;3.64;79.28;99031.11;112518;1192;61062;-79
2021/10/31 04:02:43;;;;;;;65.60;52.10;;;;;;;3.57;79.43;99031.52;112478;1192;61052;-79
2021/10/31 04:05:11;;;;;;;52.00;43.00;;;;;;;3.53;79.61;99041.19;112540;1192;65750;-79
2021/10/31 04:07:38;;;;;;;59.90;47.70;;;;;;;3.44;79.56;99037.31;112515;1192;61061;-78
2021/10/31 04:10:06;;;;;;;62.80;46.40;;;;;;;3.37;80.10;99032.48;112393;1193;64059;-78
2021/10/31 04:12:33;;;;;;;56.50;44.40;;;;;;;3.36;80.25;99030.23;112500;1184;61802;-78
2021/10/31 04:15:00;;;;;;;62.00;46.10;;;;;;;3.31;80.43;99030.92;112525;1192;60975;-78
2021/10/31 04:17:26;;;;;;;70.90;48.60;;;;;;;3.27;80.66;99034.59;112362;1193;65876;-78
2021/10/31 04:19:53;;;;;;;60.20;47.30;;;;;;;3.27;81.08;99037.59;112498;1193;60940;-78
2021/10/31 04:22:20;;;;;;;67.90;50.00;;;;;;;3.26;81.23;99033.39;112504;1193;65096;-78
2021/10/31 04:24:46;;;;;;;85.40;62.30;;;;;;;3.24;81.38;99033.82;112488;1192;60978;-77
2021/10/31 04:27:13;;;;;;;82.50;58.90;;;;;;;3.26;81.40;99035.85;112570;1193;61062;-77
2021/10/31 04:29:39;;;;;;;67.60;49.00;;;;;;;3.25;81.51;99035.54;112527;1191;64332;-78
2021/10/31 04:32:07;;;;;;;65.60;50.40;;;;;;;3.22;81.76;99032.67;112523;1178;61058;-79
2021/10/31 04:34:33;;;;;;;61.40;49.30;;;;;;;3.22;82.07;99032.33;112369;1192;63701;-77
2021/10/31 04:37:01;;;;;;;65.90;51.60;;;;;;;3.24;82.23;99034.52;112521;1192;61074;-78
2021/10/31 04:39:28;;;;;;;66.20;54.90;;;;;;;3.25;82.16;99027.12;112529;1191;61052;-77
2021/10/31 04:42:01;;;;;;;68.30;51.40;;;;;;;3.24;82.18;99024.15;112511;1193;64824;-78
2021/10/31 04:44:28;;;;;;;68.30;49.10;;;;;;;3.23;82.13;99021.05;112415;1187;61055;-77
2021/10/31 04:46:55;;;;;;;59.90;45.50;;;;;;;3.20;82.20;99022.75;112498;1193;64070;-77
2021/10/31 04:49:22;;;;;;;63.40;48.10;;;;;;;3.14;82.72;99026.63;112517;1193;61049;-78
2021/10/31 04:51:49;;;;;;;57.90;45.40;;;;;;;3.15;82.72;99032.75;112520;1193;61077;-77
2021/10/31 04:54:16;;;;;;;58.20;45.70;;;;;;;3.20;82.64;99033.45;112359;1192;65656;-78
2021/10/31 04:56:42;;;;;;;52.70;43.50;;;;;;;3.23;82.68;99032.80;112528;1192;60959;-78
2021/10/31 04:59:09;;;;;;;54.80;42.90;;;;;;;3.24;82.63;99033.50;112387;1192;64053;-79
2021/10/31 05:01:36;;;;;;;65.00;47.30;;;;;;;3.23;82.61;99029.48;112521;1192;61049;-77
2021/10/31 05:04:02;;;;;;;59.00;44.60;;;;;;;3.21;82.59;99036.20;112507;1193;60979;-80
2021/10/31 05:06:29;;;;;;;58.80;47.70;;;;;;;3.17;82.70;99042.31;112509;1192;65710;-77
2021/10/31 05:08:56;;;;;;;56.30;46.30;;;;;;;3.15;82.96;99044.67;112529;1193;61074;-78
2021/10/31 05:11:22;;;;;;;61.70;47.60;;;;;;;3.19;83.05;99043.15;112535;1192;63713;-78
2021/10/31 05:13:49;;;;;;;50.70;39.80;;;;;;;3.23;83.02;99046.33;112523;1193;61035;-78
2021/10/31 05:16:16;;;;;;;59.00;42.40;;;;;;;3.23;82.78;99041.04;112528;1192;61062;-78
2021/10/31 05:18:42;;;;;;;52.90;44.00;;;;;;;3.24;82.80;99040.30;112509;1192;61043;-77
2021/10/31 05:21:09;;;;;;;58.20;44.30;;;;;;;3.24;82.75;99038.40;112319;1193;61135;-78
2021/10/31 05:23:36;;;;;;;61.80;45.00;;;;;;;3.21;82.80;99040.06;112462;1192;64693;-79
2021/10/31 05:26:03;;;;;;;56.50;44.30;;;;;;;3.19;82.76;99042.78;112501;1192;61404;-77
2021/10/31 05:28:31;;;;;;;54.70;41.90;;;;;;;3.20;82.92;99048.04;112489;1191;61057;-78
2021/10/31 05:30:58;;;;;;;43.40;33.10;;;;;;;3.20;83.09;99056.62;112466;1192;65817;-80
2021/10/31 05:33:25;;;;;;;49.20;36.80;;;;;;;3.28;83.18;99061.06;112529;1193;61026;-77
2021/10/31 05:35:52;;;;;;;36.80;30.20;;;;;;;3.35;83.06;99064.67;112486;1192;62453;-78
2021/10/31 05:38:20;;;;;;;45.50;34.00;;;;;;;3.42;82.92;99063.89;112329;1192;61058;-79
2021/10/31 05:40:48;;;;;;;47.30;36.20;;;;;;;3.44;82.87;99063.45;112555;1192;61036;-76
2021/10/31 05:43:15;;;;;;;41.40;33.30;;;;;;;3.43;83.23;99065.95;112542;1192;64505;-77
2021/10/31 05:45:42;;;;;;;40.10;31.10;;;;;;;3.50;83.32;99062.55;112365;1193;61113;-80
2021/10/31 05:48:10;;;;;;;39.20;31.10;;;;;;;3.58;83.09;99061.55;112511;1192;65328;-78
2021/10/31 05:50:37;;;;;;;40.50;32.20;;;;;;;3.63;83.00;99062.56;112383;1191;61036;-77
2021/10/31 05:53:04;;;;;;;45.10;36.40;;;;;;;3.68;82.87;99063.44;112541;1192;61053;-82
2021/10/31 05:55:31;;;;;;;44.20;35.10;;;;;;;3.70;82.89;99058.97;112536;1191;64468;-78
2021/10/31 05:57:57;;;;;;;46.20;35.10;;;;;;;3.74;82.74;99063.58;112470;1192;60953;-77
2021/10/31 06:00:24;;;;;;;42.30;34.10;;;;;;;3.79;82.77;99059.70;112314;1184;62667;-78
2021/10/31 06:02:51;;;;;;;42.30;36.40;;;;;;;3.85;82.72;99051.57;112460;1192;61394;-78
2021/10/31 06:05:18;;;;;;;41.40;35.90;;;;;;;3.86;82.57;99052.39;112493;1192;61004;-77
2021/10/31 06:07:44;;;;;;;44.50;36.00;;;;;;;3.88;82.55;99047.57;112546;1192;66052;-77
2021/10/31 06:10:12;;;;;;;43.90;35.60;;;;;;;3.90;82.46;99051.22;112490;1191;61062;-78
2021/10/31 06:12:44;;;;;;;43.60;35.20;;;;;;;3.90;82.38;99059.63;112487;1192;62336;-77
2021/10/31 06:15:13;;;;;;;47.10;35.70;;;;;;;3.90;82.49;99066.31;112526;1192;61446;-77
2021/10/31 06:17:40;;;;;;;45.60;37.30;;;;;;;3.95;82.62;99066.12;112581;1192;61048;-79
2021/10/31 06:20:09;;;;;;;48.70;39.90;;;;;;;4.03;82.63;99071.61;112369;1192;64438;-79
2021/10/31 06:22:37;;;;;;;50.70;40.30;;;;;;;4.08;82.56;99070.71;112502;1192;61039;-78
2021/10/31 06:25:04;;;;;;;49.90;42.50;;;;;;;4.12;82.61;99071.41;112574;1193;63712;-77
2021/10/31 06:27:30;;;;;;;55.70;46.30;;;;;;;4.18;82.61;99069.27;112507;1192;61096;-78
2021/10/31 06:29:57;;;;;;;53.60;44.00;;;;;;;4.26;82.56;99074.41;112499;1193;61065;-76
2021/10/31 06:32:23;;;;;;;57.40;43.40;;;;;;;4.35;82.53;99076.31;112280;1192;61119;-79
2021/10/31 06:34:50;;;;;;;50.40;43.60;;;;;;;4.45;82.47;99079.10;112552;1192;60950;-79
2021/10/31 06:37:17;;;;;;;50.40;44.30;;;;;;;4.57;82.32;99077.36;112556;1193;61061;-79
2021/10/31 06:39:44;;;;;;;49.30;41.90;;;;;;;4.66;82.32;99078.55;112511;1193;60969;-79
2021/10/31 06:42:11;;;;;;;51.30;40.30;;;;;;;4.71;82.42;99078.90;112537;1191;61138;-79
2021/10/31 06:44:37;;;;;;;58.40;45.20;;;;;;;4.79;82.28;99082.59;112541;1192;65613;-76
2021/10/31 06:47:04;;;;;;;60.80;46.10;;;;;;;4.93;82.26;99081.83;112522;1192;61564;-78
2021/10/31 06:49:31;;;;;;;60.40;44.80;;;;;;;5.08;82.15;99083.30;112495;1192;62325;-79
2021/10/31 06:51:59;;;;;;;59.30;44.60;;;;;;;5.23;82.23;99081.94;112503;1193;61061;-78
2021/10/31 06:54:28;;;;;;;54.50;44.00;;;;;;;5.35;82.05;99078.96;112568;1192;60953;-79
2021/10/31 06:56:56;;;;;;;54.10;42.60;;;;;;;5.48;81.99;99079.80;112587;1192;66027;-78
2021/10/31 06:59:22;;;;;;;53.90;42.30;;;;;;;5.60;81.78;99084.55;112614;1192;61032;-79
2021/10/31 07:01:49;;;;;;;52.50;43.10;;;;;;;5.71;81.53;99084.21;112538;1192;63706;-78
2021/10/31 07:04:16;;;;;;;54.30;43.50;;;;;;;5.83;81.45;99084.36;112351;1192;61020;-77
2021/10/31 07:06:43;;;;;;;52.60;42.60;;;;;;;5.97;81.14;99081.11;112360;1192;61044;-79
2021/10/31 07:09:09;;;;;;;48.30;40.70;;;;;;;6.10;81.00;99078.23;112550;1184;66950;-79
2021/10/31 07:11:36;;;;;;;48.90;38.70;;;;;;;6.22;80.97;99080.48;112511;1193;61478;-80
2021/10/31 07:14:02;;;;;;;51.90;37.90;;;;;;;6.34;80.76;99079.54;112339;1193;63805;-77
2021/10/31 07:16:29;;;;;;;47.70;37.30;;;;;;;6.45;80.45;99073.69;112524;1192;61039;-79
2021/10/31 07:18:55;;;;;;;48.30;36.80;;;;;;;6.57;80.13;99069.59;112552;1193;60976;-81
2021/10/31 07:21:22;;;;;;;48.10;38.00;;;;;;;6.68;80.10;99073.62;112559;1192;61045;-78
2021/10/31 07:23:48;;;;;;;48.20;36.80;;;;;;;6.81;79.95;99071.21;112589;1192;60994;-79
2021/10/31 07:26:15;;;;;;;43.00;31.50;;;;;;;6.93;79.86;99067.73;112291;1193;61040;-78
2021/10/31 07:28:41;;;;;;;41.70;31.30;;;;;;;7.09;79.44;99071.90;112490;1192;61058;-78
2021/10/31 07:31:10;;;;;;;38.00;28.40;;;;;;;7.27;79.03;99075.22;112525;1192;61052;-80
2021/10/31 07:33:36;;;;;;;34.90;27.60;;;;;;;7.46;78.56;99075.64;112711;1192;65815;-80
2021/10/31 07:36:03;;;;;;;36.30;26.00;;;;;;;7.65;78.35;99073.39;112635;1192;60965;-79
2021/10/31 07:38:30;;;;;;;31.40;24.40;;;;;;;7.84;78.12;99068.11;112311;1193;63817;-79
2021/10/31 07:40:56;;;;;;;29.40;23.20;;;;;;;8.04;77.89;99063.80;112508;1193;61067;-78
2021/10/31 07:43:23;;;;;;;27.00;20.70;;;;;;;8.24;77.43;99062.16;112517;1193;60998;-80
2021/10/31 07:45:49;;;;;;;18.20;15.40;;;;;;;8.40;76.67;99064.30;112563;1192;61750;-79
2021/10/31 07:48:16;;;;;;;18.50;14.50;;;;;;;8.55;75.80;99061.88;112383;1193;61138;-79
2021/10/31 07:50:42;;;;;;;24.60;20.00;;;;;;;8.71;75.59;99065.55;112602;1193;64676;-79
2021/10/31 07:53:11;;;;;;;21.80;18.80;;;;;;;8.94;75.43;99067.91;112615;1192;61010;-79
2021/10/31 07:55:41;;;;;;;21.40;14.70;;;;;;;9.22;74.71;99067.69;112665;1192;60975;-79
2021/10/31 07:58:08;;;;;;;19.20;16.20;;;;;;;9.47;73.90;99069.89;112674;1193;66053;-80
2021/10/31 08:00:35;;;;;;;22.00;17.10;;;;;;;9.71;73.60;99064.67;112612;1193;61045;-79
2021/10/31 08:03:02;;;;;;;18.00;14.00;;;;;;;9.94;73.13;99062.36;112634;1191;65247;-79
2021/10/31 08:05:29;;;;;;;15.90;12.40;;;;;;;10.09;72.30;99061.36;112629;1192;60950;-79
2021/10/31 08:07:58;;;;;;;13.50;10.70;;;;;;;10.19;71.38;99061.25;112564;1193;61129;-80
2021/10/31 08:10:25;;;;;;;13.30;11.20;;;;;;;10.33;70.62;99061.64;112578;1193;65838;-81
2021/10/31 08:12:52;;;;;;;14.80;10.60;;;;;;;10.48;69.99;99060.83;112700;1193;61052;-80
2021/10/31 08:15:18;;;;;;;11.60;9.10;;;;;;;10.64;69.44;99057.98;112619;1192;64022;-79
2021/10/31 08:17:45;;;;;;;15.20;10.50;;;;;;;10.81;68.86;99053.36;112515;1192;61311;-78
2021/10/31 08:20:12;;;;;;;10.50;9.10;;;;;;;10.95;68.53;99050.12;112568;1192;61507;-78
2021/10/31 08:22:39;;;;;;;12.00;9.10;;;;;;;11.06;68.16;99055.20;112351;1193;65979;-78
2021/10/31 08:25:06;;;;;;;11.50;9.20;;;;;;;11.16;67.60;99053.48;112365;1193;60920;-80
2021/10/31 08:27:33;;;;;;;12.00;8.60;;;;;;;11.28;66.78;99056.70;112572;1191;63899;-79
2021/10/31 08:30:00;;;;;;;9.60;8.00;;;;;;;11.42;66.31;99055.98;112604;1192;61853;-79
2021/10/31 08:32:28;;;;;;;8.50;6.50;;;;;;;11.52;65.58;99052.42;112585;1193;60940;-79
2021/10/31 08:34:55;;;;;;;7.80;6.60;;;;;;;11.64;64.77;99053.15;112557;1192;64707;-80
2021/10/31 08:37:21;;;;;;;6.90;5.80;;;;;;;11.78;64.09;99050.02;112687;1192;61058;-80
2021/10/31 08:39:48;;;;;;;8.30;5.70;;;;;;;11.92;63.55;99046.95;112668;1193;62478;-79
2021/10/31 08:42:15;;;;;;;6.60;5.10;;;;;;;12.03;62.75;99043.44;112683;1192;61049;-79
2021/10/31 08:44:42;;;;;;;7.90;5.70;;;;;;;12.13;62.20;99039.20;112650;1192;61019;-79
2021/10/31 08:47:09;;;;;;;6.40;5.10;;;;;;;12.20;61.58;99034.36;112556;1193;65408;-80
2021/10/31 08:49:35;;;;;;;5.80;4.90;;;;;;;12.29;60.91;99037.88;112308;1192;61213;-81
2021/10/31 08:52:05;;;;;;;6.60;5.50;;;;;;;12.40;60.28;99034.19;112352;1192;63704;-79
2021/10/31 08:54:37;;;;;;;5.60;4.70;;;;;;;12.55;59.89;99030.77;112489;1193;61039;-79
2021/10/31 08:57:06;;;;;;;5.80;4.30;;;;;;;12.65;59.31;99029.65;112594;1192;61086;-79
2021/10/31 08:59:34;;;;;;;6.10;4.60;;;;;;;12.75;58.45;99027.81;112438;1193;65625;-79
2021/10/31 09:02:01;;;;;;;5.90;5.00;;;;;;;12.87;57.92;99023.41;112641;1192;61033;-80
2021/10/31 09:04:29;;;;;;;10.60;8.50;;;;;;;12.93;57.68;99022.55;112672;1192;63874;-79
2021/10/31 09:06:56;;;;;;;11.40;9.40;;;;;;;13.03;58.46;99017.55;112643;1193;61070;-79
2021/10/31 09:09:24;;;;;;;11.10;9.90;;;;;;;13.13;58.59;99015.67;112661;1193;60994;-79
2021/10/31 09:11:51;;;;;;;11.50;9.70;;;;;;;13.23;59.01;99013.30;112610;1192;66009;-79
2021/10/31 09:14:18;;;;;;;9.60;7.40;;;;;;;13.31;58.65;99006.42;112672;1193;60930;-79
2021/10/31 09:16:45;;;;;;;8.70;6.80;;;;;;;13.39;58.00;99003.36;112599;1192;64673;-81
2021/10/31 09:19:12;;;;;;;10.70;8.30;;;;;;;13.47;57.73;99001.67;112522;1192;61036;-80
2021/10/31 09:21:40;;;;;;;8.20;6.60;;;;;;;13.54;57.57;98998.58;112629;1192;60928;-80
2021/10/31 09:24:07;;;;;;;8.00;6.70;;;;;;;13.60;56.86;98993.48;112636;1193;65834;-79
2021/10/31 09:26:33;;;;;;;10.70;8.40;;;;;;;13.67;56.46;98990.77;112679;1184;61058;-80
2021/10/31 09:29:00;;;;;;;9.40;8.20;;;;;;;13.75;56.31;98994.02;112452;1193;62471;-80
2021/10/31 09:31:27;;;;;;;14.20;12.10;;;;;;;13.84;56.79;98997.26;112602;1192;61101;-81
2021/10/31 09:33:54;;;;;;;17.40;13.80;;;;;;;13.90;57.58;98997.11;112634;1192;61051;-79
2021/10/31 09:36:21;;;;;;;16.70;13.20;;;;;;;13.97;57.62;98998.54;112414;1192;64837;-79
2021/10/31 09:38:52;;;;;;;15.00;12.20;;;;;;;13.98;57.48;98995.58;112540;1193;61064;-84
2021/10/31 09:41:19;;;;;;;15.80;12.20;;;;;;;13.99;57.17;98989.83;112416;1193;63947;-75
2021/10/31 09:43:51;;;;;;;13.60;11.40;;;;;;;14.01;57.16;98988.79;112579;1193;61081;-75
2021/10/31 09:46:19;;;;;;;14.50;10.70;;;;;;;14.03;56.61;98988.02;112491;1192;60927;-75
2021/10/31 09:48:55;;;;;;;13.70;10.30;;;;;;;14.05;56.35;98988.41;112563;1193;65641;-77
2021/10/31 09:51:45;;;;;;;14.70;10.50;;;;;;;14.10;55.88;98981.27;112420;1183;61076;-77
2021/10/31 09:54:35;;;;;;;11.50;9.90;;;;;;;14.18;55.95;98979.70;112573;1192;63107;-75
2021/10/31 09:57:06;;;;;;;12.40;9.60;;;;;;;14.25;55.41;98973.71;112329;1193;60995;-77
2021/10/31 09:59:38;;;;;;;9.00;8.10;;;;;;;14.33;55.06;98972.69;112282;1193;61029;-77
2021/10/31 10:04:37;;;;;;;9.70;7.80;;;;;;;14.50;54.63;98970.09;112280;1192;61084;-77
2021/10/31 10:07:07;;;;;;;9.60;8.10;;;;;;;14.59;54.31;98967.40;112551;1193;62682;-76
2021/10/31 10:09:35;;;;;;;10.00;8.80;;;;;;;14.70;53.99;98966.11;112488;1192;61585;-76
2021/10/31 10:12:17;;;;;;;10.60;8.70;;;;;;;14.79;53.85;98963.36;112508;1192;61740;-77
2021/10/31 10:15:05;;;;;;;10.60;8.60;;;;;;;14.88;53.59;98960.29;112540;1192;66016;-77
2021/10/31 10:17:51;;;;;;;10.20;7.80;;;;;;;14.96;53.72;98955.50;112540;1193;61032;-77
2021/10/31 10:20:20;;;;;;;9.20;7.60;;;;;;;15.06;53.44;98951.75;112503;1192;63916;-76
2021/10/31 10:22:48;;;;;;;9.80;7.70;;;;;;;15.12;53.21;98948.40;112538;1191;61083;-76
2021/10/31 10:25:15;;;;;;;8.30;7.20;;;;;;;15.20;53.12;98947.14;112517;1193;60995;-76
2021/10/31 10:27:51;;;;;;;8.20;7.10;;;;;;;15.28;52.77;98945.77;112473;1193;65966;-76
2021/10/31 10:30:23;;;;;;;9.10;7.70;;;;;;;15.29;52.21;98938.14;112561;1192;61086;-76
2021/10/31 10:32:56;;;;;;;8.40;7.40;;;;;;;15.31;51.94;98937.79;112316;1193;62673;-76
2021/10/31 10:35:26;;;;;;;8.60;7.00;;;;;;;15.39;51.81;98936.38;112514;1193;61033;-76
2021/10/31 10:37:54;;;;;;;8.30;7.30;;;;;;;15.48;51.34;98935.56;112601;1193;61029;-75
2021/10/31 10:40:26;;;;;;;8.10;7.20;;;;;;;15.57;51.26;98935.98;112582;1192;66014;-75
2021/10/31 10:42:58;;;;;;;9.50;8.10;;;;;;;15.66;50.75;98931.29;112563;1192;60975;-75
2021/10/31 10:45:28;;;;;;;9.60;7.90;;;;;;;15.72;50.61;98927.73;112469;1193;64001;-75
2021/10/31 10:48:02;;;;;;;;;;;;;;;15.76;50.41;98928.98;112610;1191;60969;-75
2021/10/31 10:50:34;;;;;;;10.80;8.70;;;;;;;15.78;50.44;98930.79;112632;1191;61054;-75
2021/10/31 10:53:02;;;;;;;9.30;7.80;;;;;;;15.82;50.41;98930.27;112369;1192;66971;-75
2021/10/31 10:55:31;;;;;;;9.10;8.10;;;;;;;15.86;50.35;98922.40;112284;1193;61052;-75
2021/10/31 10:58:01;;;;;;;8.40;7.50;;;;;;;15.89;50.07;98919.04;112571;1193;63985;-76
2021/10/31 11:00:49;;;;;;;8.80;6.80;;;;;;;15.93;49.76;98914.23;112580;1187;61061;-75
2021/10/31 11:03:20;;;;;;;9.40;7.50;;;;;;;15.93;49.32;98914.19;112452;1192;61039;-76
2021/10/31 11:05:58;;;;;;;8.50;7.70;;;;;;;15.94;49.05;98909.06;112559;1191;66987;-76
2021/10/31 11:08:25;;;;;;;8.00;7.20;;;;;;;15.97;49.18;98907.19;112508;1192;61036;-75
2021/10/31 11:11:05;;;;;;;10.40;8.00;;;;;;;15.98;48.87;98906.19;112517;1193;64126;-76
2021/10/31 11:13:54;;;;;;;8.30;7.30;;;;;;;16.00;48.53;98902.80;112548;1191;61039;-76
2021/10/31 11:16:21;;;;;;;9.10;7.70;;;;;;;16.02;48.22;98903.55;112515;1193;61125;-76
2021/10/31 11:18:48;;;;;;;8.20;6.90;;;;;;;16.03;48.38;98901.83;112308;1193;65733;-76
2021/10/31 11:21:15;;;;;;;7.80;6.30;;;;;;;16.05;47.99;98901.32;112540;1192;61179;-76
2021/10/31 11:23:46;;;;;;;7.80;6.60;;;;;;;16.05;47.86;98898.09;112518;1193;64275;-76
2021/10/31 11:26:15;;;;;;;6.70;6.00;;;;;;;16.06;47.69;98894.63;112506;1192;61757;-76
2021/10/31 11:28:42;;;;;;;7.30;6.60;;;;;;;16.09;47.82;98890.89;112560;1192;60978;-76
2021/10/31 11:31:09;;;;;;;7.20;6.40;;;;;;;16.11;47.43;98889.12;112501;1193;65768;-77
2021/10/31 11:33:36;;;;;;;8.70;6.30;;;;;;;16.10;46.96;98886.51;112457;1193;61039;-75